Time;durP1;ratioP1;P1;durP2;ratioP2;P2;SDS_P1;SDS_P2;PMS_P1;PMS_P2;Temp;Humidity;BMP_temperature;BMP_pressure;BME280_temperature;BME280_humidity;BME280_pressure;Samples;Min_cycle;Max_cycle;Signal;HPM_P1;HPM_P2
2022/09/07 00:00:35;;;;;;;1.15;1.05;;;18.90;99.90;;;;;;5054502;28;20560;-58
2022/09/07 00:03:01;;;;;;;1.05;0.90;;;18.80;99.90;;;;;;5054614;28;20198;-58
2022/09/07 00:05:28;;;;;;;1.85;0.95;;;18.80;99.90;;;;;;5054497;28;20175;-58
2022/09/07 00:07:54;;;;;;;0.88;0.88;;;18.90;99.90;;;;;;5054441;28;20175;-58
2022/09/07 00:10:21;;;;;;;1.50;1.40;;;18.80;99.90;;;;;;5054365;28;20228;-58
2022/09/07 00:12:48;;;;;;;0.75;0.75;;;18.70;99.90;;;;;;5054198;28;20179;-58
2022/09/07 00:15:13;;;;;;;1.13;1.02;;;18.70;99.90;;;;;;5054062;28;20207;-58
2022/09/07 00:17:39;;;;;;;1.55;1.00;;;18.90;99.90;;;;;;5053684;28;20190;-58
2022/09/07 00:20:07;;;;;;;1.17;0.88;;;18.90;99.90;;;;;;5053134;28;20301;-58
2022/09/07 00:22:33;;;;;;;0.85;0.80;;;18.90;99.90;;;;;;5052817;28;20274;-58
2022/09/07 00:24:59;;;;;;;1.17;0.98;;;18.90;99.90;;;;;;5052820;28;20198;-58
2022/09/07 00:27:25;;;;;;;1.27;0.82;;;18.90;99.90;;;;;;5036108;28;20191;-58
2022/09/07 00:29:50;;;;;;;1.00;0.90;;;18.80;99.90;;;;;;5052951;28;20203;-58
2022/09/07 00:32:16;;;;;;;0.90;0.80;;;18.80;99.90;;;;;;5054108;28;20660;-57
2022/09/07 00:34:41;;;;;;;1.20;1.10;;;18.80;99.90;;;;;;5052679;28;20644;-57
2022/09/07 00:37:07;;;;;;;0.93;0.82;;;18.80;99.90;;;;;;5053878;28;20230;-59
2022/09/07 00:39:33;;;;;;;1.63;1.38;;;18.80;99.90;;;;;;5053717;28;20218;-59
2022/09/07 00:42:00;;;;;;;1.05;0.95;;;18.70;99.90;;;;;;5052358;28;20168;-59
2022/09/07 00:45:03;;;;;;;0.98;0.98;;;18.60;99.90;;;;;;5053799;28;20175;-59
2022/09/07 00:47:36;;;;;;;1.10;1.00;;;18.60;99.90;;;;;;5053589;28;20635;-57
2022/09/07 00:50:08;;;;;;;0.93;0.93;;;18.60;99.90;;;;;;5053671;28;20207;-59
2022/09/07 00:52:35;;;;;;;1.02;0.95;;;18.70;99.90;;;;;;5052424;28;20563;-58
2022/09/07 00:55:06;;;;;;;1.08;0.98;;;18.70;99.90;;;;;;5052420;28;20176;-59
2022/09/07 00:57:33;;;;;;;1.63;1.08;;;18.60;99.90;;;;;;5053592;28;20175;-58
2022/09/07 00:59:59;;;;;;;1.15;1.05;;;18.70;99.90;;;;;;5053483;28;20195;-58
2022/09/07 01:02:25;;;;;;;0.88;0.80;;;18.70;99.90;;;;;;5053427;28;20180;-58
2022/09/07 01:04:59;;;;;;;1.08;0.98;;;18.70;99.90;;;;;;5053284;28;20179;-59
2022/09/07 01:07:24;;;;;;;1.50;1.23;;;18.60;99.90;;;;;;5053717;28;20163;-58
2022/09/07 01:09:51;;;;;;;1.30;1.17;;;18.60;99.90;;;;;;5053535;28;20175;-58
2022/09/07 01:12:17;;;;;;;1.88;1.10;;;18.70;99.90;;;;;;5052174;28;20228;-58
2022/09/07 01:14:48;;;;;;;1.63;1.40;;;18.70;99.90;;;;;;5053114;28;20281;-58
2022/09/07 01:17:34;;;;;;;1.30;1.20;;;18.70;99.90;;;;;;5051888;28;20556;-58
2022/09/07 01:20:14;;;;;;;1.38;1.20;;;18.60;99.90;;;;;;5053213;28;20175;-58
2022/09/07 01:23:17;;;;;;;1.55;1.45;;;18.60;99.90;;;;;;5053086;28;20179;-57
2022/09/07 01:26:11;;;;;;;1.77;1.30;;;18.60;99.90;;;;;;5053179;28;20194;-58
2022/09/07 01:28:37;;;;;;;1.42;1.25;;;18.70;99.90;;;;;;5052991;28;20175;-58
2022/09/07 01:31:48;;;;;;;1.50;1.13;;;18.70;99.90;;;;;;5053284;28;20575;-58
2022/09/07 01:34:25;;;;;;;1.20;1.08;;;18.60;99.90;;;;;;5047685;28;20183;-57
2022/09/07 01:37:02;;;;;;;1.13;1.02;;;18.60;99.90;;;;;;5053338;28;20202;-58
2022/09/07 01:39:57;;;;;;;1.45;1.35;;;18.50;99.90;;;;;;5053366;28;20210;-57
2022/09/07 01:42:31;;;;;;;1.27;1.17;;;18.70;99.90;;;;;;5052954;28;20326;-58
2022/09/07 01:45:02;;;;;;;1.98;1.50;;;18.60;99.90;;;;;;5053216;28;20179;-58
2022/09/07 01:47:52;;;;;;;1.85;1.45;;;18.60;99.90;;;;;;5052866;28;20175;-57
2022/09/07 01:50:23;;;;;;;1.50;1.33;;;18.70;99.90;;;;;;5052963;28;20168;-57
2022/09/07 01:53:07;;;;;;;1.60;1.50;;;18.50;99.90;;;;;;5053189;28;20653;-58
2022/09/07 01:55:38;;;;;;;1.88;1.50;;;18.50;99.90;;;;;;5052956;28;20210;-58
2022/09/07 01:58:13;;;;;;;1.27;1.17;;;18.60;99.90;;;;;;5053244;28;20167;-57
2022/09/07 02:00:45;;;;;;;1.90;1.45;;;18.70;99.90;;;;;;5052773;28;20629;-58
2022/09/07 02:03:29;;;;;;;1.20;1.10;;;18.70;99.90;;;;;;5053045;28;20523;-58
2022/09/07 02:06:34;;;;;;;1.55;1.45;;;18.70;99.90;;;;;;5053040;28;20171;-58
2022/09/07 02:09:09;;;;;;;1.88;1.42;;;18.80;99.90;;;;;;5030664;28;20180;-58
2022/09/07 02:11:42;;;;;;;2.58;1.92;;;18.80;99.90;;;;;;5049670;28;20601;-58
2022/09/07 02:14:31;;;;;;;2.25;1.75;;;18.70;99.90;;;;;;5051577;28;20608;-58
2022/09/07 02:17:06;;;;;;;2.20;1.65;;;18.70;99.90;;;;;;5048252;28;20248;-58
2022/09/07 02:19:37;;;;;;;2.72;2.20;;;18.80;99.90;;;;;;5052655;28;20179;-58
2022/09/07 02:22:08;;;;;;;2.85;2.50;;;18.70;99.90;;;;;;5052579;28;20171;-57
2022/09/07 02:24:41;;;;;;;2.92;2.15;;;18.60;99.90;;;;;;5053135;28;20517;-57
2022/09/07 02:27:15;;;;;;;1.85;1.73;;;18.60;99.90;;;;;;5052769;28;20265;-58
2022/09/07 02:29:42;;;;;;;1.95;1.67;;;18.70;99.90;;;;;;5052616;28;20182;-57
2022/09/07 02:32:08;;;;;;;1.75;1.50;;;18.60;99.90;;;;;;5052714;28;20579;-58
2022/09/07 02:34:34;;;;;;;1.63;1.52;;;18.50;99.90;;;;;;5051324;28;20172;-57
2022/09/07 02:37:02;;;;;;;1.63;1.20;;;18.30;99.90;;;;;;5052432;28;20238;-58
2022/09/07 02:39:28;;;;;;;1.65;1.23;;;18.30;99.90;;;;;;5053861;28;20175;-57
2022/09/07 02:41:53;;;;;;;2.10;1.58;;;18.30;99.90;;;;;;5054983;28;20540;-58
2022/09/07 02:44:31;;;;;;;1.40;1.20;;;18.20;99.90;;;;;;5054962;28;20186;-57
2022/09/07 02:47:24;;;;;;;1.40;1.20;;;18.20;99.90;;;;;;5056081;28;20186;-58
2022/09/07 02:50:03;;;;;;;1.35;1.10;;;18.00;99.90;;;;;;5056158;28;20575;-58
2022/09/07 02:53:06;;;;;;;1.27;1.10;;;18.00;99.90;;;;;;5055807;28;20179;-57
2022/09/07 02:55:59;;;;;;;1.23;1.13;;;17.90;99.90;;;;;;5055881;28;20210;-58
2022/09/07 02:58:46;;;;;;;1.35;0.98;;;17.90;99.90;;;;;;5055924;28;20179;-58
2022/09/07 03:01:14;;;;;;;1.10;1.02;;;17.90;99.90;;;;;;5055918;28;20171;-57
2022/09/07 03:03:54;;;;;;;1.30;1.20;;;17.90;99.90;;;;;;5055674;28;20202;-57
2022/09/07 03:06:28;;;;;;;1.40;1.20;;;17.80;99.90;;;;;;5054672;28;20171;-58
2022/09/07 03:08:57;;;;;;;1.38;1.20;;;17.70;99.90;;;;;;5055589;28;20171;-57
2022/09/07 03:11:24;;;;;;;1.23;1.13;;;17.70;99.90;;;;;;5054396;28;20365;-58
2022/09/07 03:13:50;;;;;;;1.60;1.50;;;17.70;99.90;;;;;;5055279;28;20181;-57
2022/09/07 03:16:15;;;;;;;1.15;1.05;;;17.70;99.90;;;;;;5054183;28;20210;-57
2022/09/07 03:18:42;;;;;;;1.17;1.00;;;17.70;99.90;;;;;;5055512;28;20171;-58
2022/09/07 03:21:09;;;;;;;1.55;1.23;;;17.70;99.90;;;;;;5055445;28;20220;-57
2022/09/07 03:23:36;;;;;;;1.45;1.15;;;17.70;99.90;;;;;;5055312;28;20179;-58
2022/09/07 03:26:02;;;;;;;1.30;1.20;;;17.70;99.90;;;;;;5055434;28;20649;-58
2022/09/07 03:28:28;;;;;;;1.25;1.00;;;17.60;99.90;;;;;;5055231;28;20655;-58
2022/09/07 03:30:54;;;;;;;1.23;1.13;;;17.70;99.90;;;;;;5055326;28;20175;-58
2022/09/07 03:33:20;;;;;;;1.50;1.40;;;17.60;99.90;;;;;;5055098;28;20182;-57
2022/09/07 03:35:56;;;;;;;1.13;1.00;;;17.60;99.90;;;;;;5055041;28;20542;-58
2022/09/07 03:38:21;;;;;;;1.23;1.13;;;17.50;99.90;;;;;;5054955;28;20179;-59
2022/09/07 03:41:05;;;;;;;1.63;1.30;;;17.50;99.90;;;;;;5054986;28;20179;-57
2022/09/07 03:43:32;;;;;;;1.40;1.20;;;17.50;99.90;;;;;;5055135;28;20171;-58
2022/09/07 03:45:59;;;;;;;1.50;1.20;;;17.60;99.90;;;;;;5054703;28;20236;-58
2022/09/07 03:48:26;;;;;;;1.67;1.25;;;17.60;99.90;;;;;;5054852;28;20241;-58
2022/09/07 03:51:07;;;;;;;1.63;1.52;;;17.60;99.90;;;;;;5053539;28;20203;-57
2022/09/07 03:53:35;;;;;;;1.52;1.20;;;17.50;99.90;;;;;;5054703;28;20171;-57
2022/09/07 03:56:04;;;;;;;1.92;1.50;;;17.60;99.90;;;;;;5054748;28;20244;-58
2022/09/07 03:58:31;;;;;;;1.40;1.25;;;17.50;99.90;;;;;;5053420;28;20171;-57
2022/09/07 04:00:58;;;;;;;2.15;1.50;;;17.40;99.90;;;;;;5054637;28;20176;-58
2022/09/07 04:03:24;;;;;;;1.92;1.60;;;17.40;99.90;;;;;;5054677;28;20179;-58
2022/09/07 04:05:50;;;;;;;1.85;1.20;;;17.40;99.90;;;;;;5054396;28;20191;-58
2022/09/07 04:08:15;;;;;;;2.00;1.75;;;17.40;99.90;;;;;;5053154;28;20661;-55
2022/09/07 04:10:41;;;;;;;1.73;1.30;;;17.40;99.90;;;;;;5052955;28;20240;-58
2022/09/07 04:13:07;;;;;;;2.20;1.85;;;17.50;99.90;;;;;;5054434;28;20171;-57
2022/09/07 04:15:33;;;;;;;1.33;1.20;;;17.50;99.90;;;;;;5054208;28;20246;-57
2022/09/07 04:18:00;;;;;;;1.65;1.20;;;17.40;99.90;;;;;;5052964;28;20852;-58
2022/09/07 04:20:26;;;;;;;2.25;1.48;;;17.40;99.90;;;;;;5054131;28;20637;-58
2022/09/07 04:22:52;;;;;;;2.08;1.45;;;17.40;99.90;;;;;;5052584;28;20190;-57
2022/09/07 04:25:18;;;;;;;1.50;1.40;;;17.40;99.90;;;;;;5053211;28;20171;-57
2022/09/07 04:27:44;;;;;;;1.40;1.20;;;17.40;99.90;;;;;;5054147;28;20206;-58
2022/09/07 04:30:10;;;;;;;1.52;1.35;;;17.40;99.90;;;;;;5053950;28;20179;-58
2022/09/07 04:32:36;;;;;;;1.77;1.50;;;17.40;99.90;;;;;;5052969;28;20258;-58
2022/09/07 04:35:03;;;;;;;1.52;1.40;;;17.40;99.90;;;;;;5052684;28;20266;-58
2022/09/07 04:37:28;;;;;;;1.90;1.48;;;17.40;99.90;;;;;;5053723;28;20176;-57
2022/09/07 04:39:54;;;;;;;1.70;1.50;;;17.30;99.90;;;;;;5054006;28;20183;-57
2022/09/07 04:42:20;;;;;;;3.05;1.70;;;17.30;99.90;;;;;;5054033;28;20637;-57
2022/09/07 04:44:48;;;;;;;2.88;1.80;;;17.30;99.90;;;;;;5053528;28;20254;-58
2022/09/07 04:47:14;;;;;;;1.88;1.50;;;17.30;99.90;;;;;;5053691;28;20528;-58
2022/09/07 04:49:40;;;;;;;1.40;1.30;;;17.30;99.90;;;;;;5053524;28;20179;-56
2022/09/07 04:52:05;;;;;;;1.30;1.20;;;17.30;99.90;;;;;;5053432;28;20270;-58
2022/09/07 04:54:31;;;;;;;1.65;1.52;;;17.30;99.90;;;;;;5053768;28;20258;-57
2022/09/07 04:56:57;;;;;;;1.40;1.30;;;17.40;99.90;;;;;;5053009;28;20206;-57
2022/09/07 04:59:22;;;;;;;1.73;1.63;;;17.40;99.90;;;;;;5053630;28;20179;-58
2022/09/07 05:01:48;;;;;;;2.08;1.60;;;17.30;99.90;;;;;;5052922;28;20621;-58
2022/09/07 05:04:13;;;;;;;2.05;1.45;;;17.10;99.90;;;;;;5053234;28;20175;-59
2022/09/07 05:06:39;;;;;;;1.42;1.33;;;17.20;99.90;;;;;;5052032;28;20641;-58
2022/09/07 05:09:05;;;;;;;1.95;1.75;;;17.30;99.90;;;;;;5053434;28;20171;-58
2022/09/07 05:11:30;;;;;;;1.77;1.60;;;17.40;99.90;;;;;;5051929;28;20414;-58
2022/09/07 05:13:58;;;;;;;2.58;1.60;;;17.40;99.90;;;;;;5052315;28;20186;-58
2022/09/07 05:16:25;;;;;;;1.70;1.25;;;17.50;99.90;;;;;;5051724;28;20302;-58
2022/09/07 05:18:53;;;;;;;2.65;1.83;;;17.50;99.90;;;;;;5051866;28;20233;-58
2022/09/07 05:21:21;;;;;;;1.50;1.33;;;17.50;99.90;;;;;;5052127;28;20186;-58
2022/09/07 05:23:51;;;;;;;2.03;1.70;;;17.60;99.90;;;;;;5053342;28;20174;-58
2022/09/07 05:26:18;;;;;;;2.25;2.03;;;17.60;99.90;;;;;;5051928;28;20713;-58
2022/09/07 05:28:44;;;;;;;1.70;1.60;;;17.70;99.90;;;;;;5051921;28;20534;-58
2022/09/07 05:31:13;;;;;;;2.58;2.15;;;17.60;99.90;;;;;;5053079;28;20178;-58
2022/09/07 05:33:39;;;;;;;1.67;1.52;;;17.50;99.90;;;;;;5052930;28;20643;-58
2022/09/07 05:36:05;;;;;;;2.40;1.88;;;17.60;99.90;;;;;;5053076;28;20211;-58
2022/09/07 05:38:35;;;;;;;1.65;1.55;;;17.50;99.90;;;;;;5053131;28;20176;-58
2022/09/07 05:41:09;;;;;;;1.67;1.55;;;17.60;99.90;;;;;;5052945;28;20742;-58
2022/09/07 05:43:34;;;;;;;2.50;2.28;;;17.60;99.90;;;;;;5052973;28;20532;-58
2022/09/07 05:46:00;;;;;;;2.28;1.90;;;17.60;99.90;;;;;;5051535;28;20175;-58
2022/09/07 05:48:26;;;;;;;2.38;2.03;;;17.60;99.90;;;;;;5051733;28;20176;-59
2022/09/07 05:50:52;;;;;;;1.83;1.50;;;17.60;99.90;;;;;;5052956;28;20696;-58
2022/09/07 05:53:20;;;;;;;2.30;1.95;;;17.60;99.90;;;;;;5051895;28;20207;-58
2022/09/07 05:55:49;;;;;;;2.08;1.88;;;17.60;99.90;;;;;;5053025;28;20207;-60
2022/09/07 05:58:15;;;;;;;2.13;1.80;;;17.60;99.90;;;;;;5051579;28;20175;-60
2022/09/07 06:00:41;;;;;;;2.20;2.00;;;17.50;99.90;;;;;;5052845;28;20179;-59
2022/09/07 06:03:07;;;;;;;2.30;2.10;;;17.50;99.90;;;;;;5052778;28;20159;-59
2022/09/07 06:05:33;;;;;;;2.78;2.00;;;17.50;99.90;;;;;;5051760;28;20179;-58
2022/09/07 06:07:59;;;;;;;3.33;2.35;;;17.60;99.90;;;;;;5051724;28;20251;-58
2022/09/07 06:10:25;;;;;;;2.67;2.40;;;17.60;99.90;;;;;;5052780;28;20175;-58
2022/09/07 06:12:52;;;;;;;3.17;2.28;;;17.70;99.90;;;;;;5051599;28;20183;-59
2022/09/07 06:15:18;;;;;;;3.63;2.38;;;17.80;99.90;;;;;;5055328;28;20203;-58
2022/09/07 06:17:43;;;;;;;3.55;2.83;;;18.00;99.90;;;;;;5056552;28;20185;-58
2022/09/07 06:20:09;;;;;;;3.88;2.90;;;18.20;99.90;;;;;;5056626;28;20199;-59
2022/09/07 06:22:36;;;;;;;4.25;2.95;;;18.20;99.90;;;;;;5056534;28;20175;-59
2022/09/07 06:25:02;;;;;;;3.05;2.65;;;18.30;99.90;;;;;;5056558;28;20183;-59
2022/09/07 06:27:28;;;;;;;4.88;3.10;;;18.50;99.90;;;;;;5056252;28;20190;-58
2022/09/07 06:29:54;;;;;;;2.97;2.55;;;18.60;99.90;;;;;;5055122;28;20175;-58
2022/09/07 06:32:20;;;;;;;5.15;3.40;;;18.80;99.90;;;;;;5056366;28;20171;-58
2022/09/07 06:34:46;;;;;;;4.13;2.95;;;18.80;99.90;;;;;;5056309;28;20212;-58
2022/09/07 06:37:12;;;;;;;4.90;2.85;;;18.90;99.90;;;;;;5056222;28;20697;-58
2022/09/07 06:39:38;;;;;;;3.78;2.72;;;19.00;99.90;;;;;;5056310;28;20598;-58
2022/09/07 06:42:03;;;;;;;3.35;2.40;;;18.90;99.90;;;;;;5056035;28;20168;-57
2022/09/07 06:44:29;;;;;;;4.30;3.22;;;18.90;99.90;;;;;;5055885;28;20270;-57
2022/09/07 06:46:55;;;;;;;3.92;2.85;;;18.90;99.90;;;;;;5056178;28;20206;-58
2022/09/07 06:49:22;;;;;;;3.38;2.72;;;19.00;99.90;;;;;;5056189;28;20207;-58
2022/09/07 06:51:48;;;;;;;4.15;2.80;;;19.00;99.90;;;;;;5055900;28;20721;-58
2022/09/07 06:54:14;;;;;;;4.03;2.60;;;18.90;99.90;;;;;;5055825;28;20181;-58
2022/09/07 06:56:40;;;;;;;4.05;2.55;;;18.90;99.90;;;;;;5055913;28;20204;-58
2022/09/07 06:59:05;;;;;;;3.80;2.45;;;19.00;99.90;;;;;;5055692;28;20656;-58
2022/09/07 07:01:32;;;;;;;4.13;2.83;;;18.90;99.90;;;;;;5055786;28;20591;-58
2022/09/07 07:03:59;;;;;;;4.57;2.42;;;18.90;99.90;;;;;;5054652;28;20179;-58
2022/09/07 07:06:36;;;;;;;3.55;2.38;;;18.90;99.90;;;;;;5055829;28;20254;-58
2022/09/07 07:09:03;;;;;;;2.80;2.05;;;18.90;99.90;;;;;;5055780;28;20163;-58
2022/09/07 07:11:30;;;;;;;3.30;2.00;;;19.00;99.90;;;;;;5055533;28;20171;-58
2022/09/07 07:13:56;;;;;;;2.83;2.05;;;18.90;99.90;;;;;;5055570;28;20644;-58
2022/09/07 07:16:23;;;;;;;2.92;1.90;;;18.90;99.90;;;;;;5055465;28;20214;-58
2022/09/07 07:18:51;;;;;;;2.45;1.80;;;18.90;99.90;;;;;;5055441;28;20213;-59
2022/09/07 07:21:17;;;;;;;2.13;1.92;;;18.90;99.90;;;;;;5055478;28;20620;-58
2022/09/07 07:23:48;;;;;;;3.03;1.95;;;19.10;99.90;;;;;;5055332;28;20187;-58
2022/09/07 07:26:15;;;;;;;4.07;2.47;;;19.20;99.90;;;;;;5054696;28;20533;-58
2022/09/07 07:28:46;;;;;;;2.90;2.38;;;19.30;99.90;;;;;;5055176;28;20624;-58
2022/09/07 07:31:12;;;;;;;2.92;2.08;;;19.30;99.90;;;;;;5055276;28;20237;-58
2022/09/07 07:33:38;;;;;;;2.78;2.00;;;19.40;99.90;;;;;;5055297;28;20180;-58
2022/09/07 07:36:12;;;;;;;2.45;1.73;;;19.50;99.90;;;;;;5054954;28;20187;-58
2022/09/07 07:38:38;;;;;;;4.05;2.17;;;19.70;99.90;;;;;;5054974;28;20175;-58
2022/09/07 07:41:05;;;;;;;4.05;1.77;;;19.70;99.90;;;;;;5055105;28;20231;-57
2022/09/07 07:43:30;;;;;;;2.80;1.48;;;19.60;99.90;;;;;;5055070;28;20176;-58
2022/09/07 07:45:58;;;;;;;2.95;1.85;;;19.70;99.90;;;;;;5053693;28;20253;-58
2022/09/07 07:48:24;;;;;;;2.10;1.60;;;19.70;99.90;;;;;;5055060;28;20179;-58
2022/09/07 07:50:57;;;;;;;2.63;1.70;;;19.70;99.90;;;;;;5054690;28;20648;-57
2022/09/07 07:53:22;;;;;;;2.80;1.35;;;19.80;99.90;;;;;;5053323;28;20178;-58
2022/09/07 07:55:48;;;;;;;2.67;1.55;;;20.00;99.90;;;;;;5054766;28;20664;-58
2022/09/07 07:58:14;;;;;;;1.83;1.70;;;20.10;99.90;;;;;;5054719;28;20181;-58
2022/09/07 08:00:39;;;;;;;1.67;1.40;;;20.10;99.90;;;;;;5054631;28;20246;-57
2022/09/07 08:03:05;;;;;;;2.55;1.88;;;20.10;99.90;;;;;;5054418;28;20267;-57
2022/09/07 08:05:34;;;;;;;2.03;1.60;;;20.30;99.90;;;;;;5053371;28;20179;-58
2022/09/07 08:08:00;;;;;;;2.03;1.50;;;20.50;99.90;;;;;;5054591;28;20234;-58
2022/09/07 08:10:27;;;;;;;1.48;1.27;;;20.60;99.90;;;;;;5054552;28;20208;-58
2022/09/07 08:12:53;;;;;;;1.75;1.23;;;20.70;99.90;;;;;;5054469;28;20187;-58
2022/09/07 08:15:19;;;;;;;1.40;1.10;;;20.70;99.90;;;;;;5054084;28;20714;-57
2022/09/07 08:17:47;;;;;;;1.48;1.10;;;20.90;99.90;;;;;;5054286;28;20275;-58
2022/09/07 08:20:13;;;;;;;1.65;1.42;;;20.90;99.90;;;;;;5054111;28;20187;-58
2022/09/07 08:22:39;;;;;;;1.23;0.93;;;20.80;99.90;;;;;;5054279;28;20167;-58
2022/09/07 08:25:06;;;;;;;2.42;1.00;;;20.90;99.90;;;;;;5054413;28;20233;-58
2022/09/07 08:27:32;;;;;;;1.75;1.23;;;21.00;99.90;;;;;;5052927;28;20175;-58
2022/09/07 08:29:59;;;;;;;1.08;0.98;;;21.00;99.90;;;;;;5053984;28;20699;-58
2022/09/07 08:32:25;;;;;;;1.25;0.90;;;21.10;99.90;;;;;;5053976;28;20274;-58
2022/09/07 08:34:51;;;;;;;1.42;0.93;;;21.20;99.90;;;;;;5053845;28;20172;-58
2022/09/07 08:37:17;;;;;;;2.15;1.00;;;21.30;99.90;;;;;;5053270;28;20278;-57
2022/09/07 08:39:42;;;;;;;1.08;0.90;;;21.40;99.90;;;;;;5054016;28;20311;-57
2022/09/07 08:42:35;;;;;;;2.88;1.00;;;21.60;99.90;;;;;;5054032;28;20629;-58
2022/09/07 08:45:08;;;;;;;1.70;0.85;;;21.70;99.90;;;;;;5053981;28;20183;-58
2022/09/07 08:47:49;;;;;;;1.83;0.80;;;21.80;99.90;;;;;;5053794;28;20187;-58
2022/09/07 08:50:20;;;;;;;1.42;0.70;;;21.80;99.90;;;;;;5053839;28;20187;-58
2022/09/07 08:52:57;;;;;;;1.23;0.73;;;21.80;99.90;;;;;;5053656;28;20185;-58
2022/09/07 08:55:30;;;;;;;1.23;0.70;;;21.90;99.90;;;;;;5053625;28;20249;-58
2022/09/07 08:58:02;;;;;;;1.05;0.60;;;21.80;99.90;;;;;;5053448;28;20179;-57
2022/09/07 09:00:28;;;;;;;0.68;0.68;;;21.90;99.90;;;;;;5053369;28;20700;-58
2022/09/07 09:02:57;;;;;;;1.40;0.70;;;21.80;99.90;;;;;;5053540;28;20180;-57
2022/09/07 09:05:54;;;;;;;1.40;1.02;;;21.80;99.90;;;;;;5035559;28;20179;-58
2022/09/07 09:08:40;;;;;;;0.55;0.55;;;21.80;99.90;;;;;;5053402;28;20244;-58
2022/09/07 09:11:06;;;;;;;0.88;0.50;;;21.70;99.90;;;;;;5053477;28;20171;-58
2022/09/07 09:13:44;;;;;;;0.40;0.40;;;21.60;99.90;;;;;;5053357;28;20694;-58
2022/09/07 09:16:28;;;;;;;0.60;0.50;;;21.40;99.90;;;;;;5053161;28;20622;-58
2022/09/07 09:19:05;;;;;;;0.80;0.73;;;21.40;99.90;;;;;;5053428;28;20175;-58
2022/09/07 09:21:32;;;;;;;0.73;0.63;;;21.30;99.90;;;;;;5053357;28;20632;-57
2022/09/07 09:24:06;;;;;;;0.50;0.50;;;21.20;99.90;;;;;;5053318;28;20202;-57
2022/09/07 09:26:33;;;;;;;0.45;0.45;;;21.00;99.90;;;;;;5053175;28;20178;-58
2022/09/07 09:29:12;;;;;;;1.30;0.52;;;21.00;99.90;;;;;;5052973;28;20510;-58
2022/09/07 09:31:38;;;;;;;0.52;0.52;;;20.90;99.90;;;;;;5053336;28;20254;-58
2022/09/07 09:34:12;;;;;;;0.40;0.40;;;20.90;99.90;;;;;;5053108;28;20600;-58
2022/09/07 09:36:50;;;;;;;0.70;0.60;;;20.90;99.90;;;;;;5052974;28;20210;-58
2022/09/07 09:39:25;;;;;;;1.60;0.73;;;20.80;99.90;;;;;;5053019;28;20167;-58
2022/09/07 09:41:51;;;;;;;0.50;0.50;;;20.80;99.90;;;;;;5053111;28;20535;-58
2022/09/07 09:44:17;;;;;;;0.40;0.40;;;21.00;99.90;;;;;;5053217;28;20178;-57
2022/09/07 09:46:48;;;;;;;0.38;0.38;;;21.30;99.90;;;;;;5052991;28;20202;-58
2022/09/07 09:49:25;;;;;;;0.47;0.45;;;21.30;99.90;;;;;;5055728;28;20537;-58
2022/09/07 09:51:55;;;;;;;1.27;0.35;;;21.40;99.90;;;;;;5056928;28;20175;-58
2022/09/07 09:54:24;;;;;;;0.65;0.50;;;21.40;99.90;;;;;;5057215;28;20174;-59
2022/09/07 09:56:49;;;;;;;0.40;0.40;;;21.40;99.90;;;;;;5056872;28;20207;-58
2022/09/07 09:59:15;;;;;;;0.40;0.40;;;21.80;99.90;;;;;;5057059;28;20525;-57
2022/09/07 10:01:41;;;;;;;0.65;0.50;;;21.90;99.90;;;;;;5056968;28;20167;-57
2022/09/07 10:04:29;;;;;;;1.27;0.30;;;22.00;99.90;;;;;;5056736;28;20175;-58
2022/09/07 10:07:07;;;;;;;0.75;0.45;;;22.20;99.90;;;;;;5056933;28;20167;-58
2022/09/07 10:09:46;;;;;;;0.95;0.70;;;22.50;99.90;;;;;;5056740;28;20258;-58
2022/09/07 10:12:27;;;;;;;0.80;0.45;;;22.80;99.90;;;;;;5056732;28;20528;-58
2022/09/07 10:14:55;;;;;;;0.50;0.50;;;22.80;99.90;;;;;;5056223;28;20197;-58
2022/09/07 10:17:34;;;;;;;0.50;0.40;;;23.20;99.90;;;;;;5055423;28;20739;-57
2022/09/07 10:20:20;;;;;;;1.40;0.52;;;23.30;99.90;;;;;;5056605;28;20175;-58
2022/09/07 10:22:52;;;;;;;0.38;0.38;;;23.40;99.90;;;;;;5055346;28;20202;-58
2022/09/07 10:25:43;;;;;;;1.27;0.88;;;23.60;99.90;;;;;;5056288;28;20186;-58
2022/09/07 10:28:12;;;;;;;1.15;0.50;;;23.70;99.90;;;;;;5056510;28;20182;-58
2022/09/07 10:31:02;;;;;;;1.13;0.73;;;23.80;99.90;;;;;;5056382;28;20530;-58
2022/09/07 10:33:46;;;;;;;1.08;0.32;;;23.80;99.90;;;;;;5056187;28;20178;-58
2022/09/07 10:36:27;;;;;;;1.92;0.32;;;23.80;99.90;;;;;;5056217;28;20301;-58
2022/09/07 10:39:03;;;;;;;0.90;0.40;;;24.10;99.90;;;;;;5056263;28;20178;-57
2022/09/07 10:41:43;;;;;;;0.82;0.47;;;24.10;99.90;;;;;;5056206;28;20174;-58
2022/09/07 10:44:52;;;;;;;0.77;0.40;;;23.90;99.90;;;;;;5055940;28;20179;-57
2022/09/07 10:47:24;;;;;;;0.55;0.50;;;24.00;99.90;;;;;;5033739;28;20183;-58
2022/09/07 10:49:55;;;;;;;0.22;0.22;;;23.90;99.90;;;;;;5052014;28;20275;-58
2022/09/07 10:52:48;;;;;;;1.50;0.50;;;23.90;99.90;;;;;;5055793;28;20567;-57
2022/09/07 10:55:25;;;;;;;0.20;0.20;;;24.10;99.90;;;;;;5046285;28;20214;-58
2022/09/07 10:58:12;;;;;;;1.90;0.30;;;24.30;99.90;;;;;;5055889;28;20191;-59
2022/09/07 11:00:50;;;;;;;1.60;0.60;;;24.40;99.90;;;;;;5054708;28;20559;-59
2022/09/07 11:03:27;;;;;;;1.23;0.47;;;24.40;99.90;;;;;;5055824;28;20221;-58
2022/09/07 11:06:11;;;;;;;1.08;0.45;;;24.30;99.90;;;;;;5055771;28;20202;-58
2022/09/07 11:08:46;;;;;;;0.60;0.38;;;24.20;99.90;;;;;;5055589;28;20246;-60
2022/09/07 11:11:29;;;;;;;0.73;0.40;;;24.40;99.90;;;;;;5055440;28;20198;-58
2022/09/07 11:14:01;;;;;;;0.30;0.30;;;24.10;99.90;;;;;;5055295;28;20225;-58
2022/09/07 11:16:31;;;;;;;1.13;0.60;;;23.90;99.90;;;;;;5055469;28;20195;-58
2022/09/07 11:19:02;;;;;;;0.63;0.30;;;23.90;99.90;;;;;;5055609;28;20229;-58
2022/09/07 11:21:35;;;;;;;2.17;0.60;;;24.00;99.90;;;;;;5055182;28;20640;-57
2022/09/07 11:24:13;;;;;;;0.20;0.20;;;23.60;99.90;;;;;;5055498;28;20668;-58
2022/09/07 11:26:52;;;;;;;0.52;0.52;;;23.70;99.90;;;;;;5055276;28;20175;-57
2022/09/07 11:29:33;;;;;;;0.47;0.38;;;23.90;99.90;;;;;;5055187;28;20171;-58
2022/09/07 11:32:25;;;;;;;0.28;0.25;;;23.90;99.90;;;;;;5055023;28;20653;-58
2022/09/07 11:35:17;;;;;;;0.60;0.40;;;24.10;99.90;;;;;;5052458;28;20706;-58
2022/09/07 11:37:58;;;;;;;0.40;0.20;;;24.10;99.90;;;;;;5045393;28;20222;-58
2022/09/07 11:40:34;;;;;;;0.32;0.32;;;23.90;99.90;;;;;;5054875;28;20175;-58
2022/09/07 11:43:23;;;;;;;1.10;0.70;;;23.90;99.90;;;;;;5055121;28;20178;-58
2022/09/07 11:45:55;;;;;;;0.30;0.30;;;23.90;99.90;;;;;;5055001;28;20222;-58
2022/09/07 11:48:43;;;;;;;0.28;0.28;;;23.90;99.90;;;;;;5054801;28;20180;-58
2022/09/07 11:51:38;;;;;;;0.57;0.50;;;23.80;99.90;;;;;;5050920;28;20179;-58
2022/09/07 11:54:23;;;;;;;0.60;0.40;;;23.90;99.90;;;;;;5051488;28;20274;-58
2022/09/07 11:56:59;;;;;;;1.77;0.40;;;23.90;99.70;;;;;;5054570;28;20202;-58
2022/09/07 11:59:47;;;;;;;0.90;0.40;;;23.80;99.90;;;;;;5054624;28;20175;-58
2022/09/07 12:02:42;;;;;;;0.20;0.20;;;23.50;99.90;;;;;;5054770;28;20171;-58
2022/09/07 12:05:13;;;;;;;0.63;0.20;;;23.60;99.90;;;;;;5054309;28;20582;-58
2022/09/07 12:08:03;;;;;;;0.70;0.38;;;23.70;99.90;;;;;;5054695;28;20625;-58
2022/09/07 12:10:29;;;;;;;0.47;0.20;;;23.50;99.90;;;;;;5054564;28;20205;-58
2022/09/07 12:13:14;;;;;;;0.43;0.32;;;23.40;99.90;;;;;;5054402;28;20266;-58
2022/09/07 12:15:58;;;;;;;0.50;0.38;;;23.40;99.90;;;;;;5054521;28;20253;-58
2022/09/07 12:19:01;;;;;;;0.30;0.22;;;23.30;99.90;;;;;;5054779;28;20543;-58
2022/09/07 12:21:34;;;;;;;0.80;0.28;;;23.50;99.90;;;;;;5054314;28;20167;-58
2022/09/07 12:23:59;;;;;;;0.55;0.40;;;23.70;99.90;;;;;;5054110;28;20206;-58
2022/09/07 12:26:48;;;;;;;0.30;0.30;;;23.90;99.90;;;;;;5054297;28;20179;-58
2022/09/07 12:29:22;;;;;;;0.20;0.20;;;24.10;99.90;;;;;;5054145;28;20175;-58
2022/09/07 12:31:54;;;;;;;0.20;0.20;;;24.10;99.90;;;;;;5054268;28;20175;-58
2022/09/07 12:34:31;;;;;;;1.35;0.40;;;24.10;98.10;;;;;;5053920;28;20199;-58
2022/09/07 12:37:21;;;;;;;1.88;0.40;;;24.10;99.40;;;;;;5053947;28;20206;-59
2022/09/07 12:39:47;;;;;;;0.60;0.43;;;24.10;99.00;;;;;;5053721;28;20175;-58
2022/09/07 12:42:28;;;;;;;1.63;0.50;;;24.00;99.70;;;;;;5052623;28;20182;-58
2022/09/07 12:45:27;;;;;;;1.90;0.73;;;24.10;99.90;;;;;;5052724;28;20176;-57
2022/09/07 12:47:58;;;;;;;0.43;0.30;;;24.30;99.00;;;;;;5053843;28;20254;-58
2022/09/07 12:50:29;;;;;;;0.63;0.13;;;24.40;99.90;;;;;;5053917;28;20163;-58
2022/09/07 12:53:31;;;;;;;0.73;0.22;;;24.40;99.90;;;;;;5053698;28;20532;-58
2022/09/07 12:56:16;;;;;;;0.73;0.47;;;24.30;99.80;;;;;;5053530;28;20609;-58
2022/09/07 12:58:44;;;;;;;0.88;0.50;;;23.80;99.00;;;;;;5053484;28;20632;-58
2022/09/07 13:01:29;;;;;;;1.05;0.30;;;23.60;99.90;;;;;;5053597;28;20171;-58
2022/09/07 13:04:36;;;;;;;1.58;0.50;;;23.70;99.90;;;;;;5053785;28;20180;-57
2022/09/07 13:07:33;;;;;;;0.30;0.30;;;23.50;99.90;;;;;;5053628;28;20662;-58
2022/09/07 13:10:02;;;;;;;0.30;0.30;;;23.60;99.90;;;;;;5051993;28;20203;-58
2022/09/07 13:12:40;;;;;;;0.38;0.30;;;23.70;99.90;;;;;;5053508;28;20217;-58
2022/09/07 13:15:06;;;;;;;1.10;0.20;;;23.90;99.60;;;;;;5053188;28;20280;-58